createdAt,value
2023-05-19T04:31:45.874Z,100881.97
2023-05-19T04:34:49.787Z,100881.97
2023-05-19T04:37:54.541Z,100892.22
2023-05-19T04:40:57.341Z,100895.22
2023-05-19T04:44:00.074Z,100894.34
2023-05-19T04:47:02.737Z,100896.78
2023-05-19T04:50:06.129Z,100900.84
2023-05-19T04:53:09.869Z,100892.06
2023-05-19T04:56:15.465Z,100897.03
2023-05-19T04:59:18.272Z,100896.12
2023-05-19T05:02:21.284Z,100892.75
2023-05-19T05:05:24.836Z,100886.16
2023-05-19T05:08:28.555Z,100891.69
2023-05-19T05:11:31.864Z,100888.94
2023-05-19T05:14:35.062Z,100891.41
2023-05-19T05:17:38.014Z,100896.91
2023-05-19T05:20:41.839Z,100889.25
2023-05-19T05:23:44.775Z,100897.91
2023-05-19T05:26:47.549Z,100900.66
2023-05-19T05:29:51.747Z,100909.59
2023-05-19T05:32:54.425Z,100905.03
2023-05-19T05:35:57.059Z,100906.97
2023-05-19T05:38:59.761Z,100905.31
2023-05-19T05:42:02.385Z,100909.41
2023-05-19T05:45:05.470Z,100909.00
2023-05-19T05:48:08.624Z,100900.41
2023-05-19T05:51:11.686Z,100905.03
2023-05-19T05:54:14.288Z,100916.31
2023-05-19T05:57:17.254Z,100910.94
2023-05-19T06:00:20.537Z,100916.62
2023-05-19T06:03:24.789Z,100918.03
2023-05-19T06:06:27.548Z,100916.72
2023-05-19T06:09:30.524Z,100914.72
2023-05-19T06:12:33.261Z,100920.00
2023-05-19T06:15:36.879Z,100920.91
2023-05-19T06:18:39.498Z,100933.94
2023-05-19T06:21:43.271Z,100939.44
2023-05-19T06:24:46.172Z,100949.41
2023-05-19T06:27:48.789Z,100949.41
2023-05-19T06:30:51.471Z,100948.44
2023-05-19T06:33:54.154Z,100953.81
2023-05-19T06:36:56.757Z,100959.31
2023-05-19T06:39:59.537Z,100955.66
2023-05-19T06:43:02.144Z,100946.69
2023-05-19T06:46:05.105Z,100949.78
2023-05-19T06:49:07.898Z,100948.41
2023-05-19T06:52:10.585Z,100955.75
2023-05-19T06:55:14.112Z,100955.03
2023-05-19T06:58:16.992Z,100951.59
2023-05-19T07:01:19.533Z,100949.37
2023-05-19T07:04:22.126Z,100949.19
2023-05-19T07:07:24.730Z,100946.50
2023-05-19T07:10:27.605Z,100936.19
2023-05-19T07:13:30.159Z,100939.75
2023-05-19T07:16:32.848Z,100932.41
2023-05-19T07:19:35.455Z,100941.44
2023-05-19T07:22:39.861Z,100946.50
2023-05-19T07:25:42.592Z,100941.87
2023-05-19T07:28:45.246Z,100940.00
2023-05-19T07:31:48.088Z,100938.28
2023-05-19T07:34:50.739Z,100940.78
2023-05-19T07:37:53.309Z,100955.19
2023-05-19T07:40:55.943Z,100950.44
2023-05-19T07:43:58.526Z,100949.78
2023-05-19T07:47:01.571Z,100944.66
2023-05-19T07:50:04.568Z,100943.03
2023-05-19T07:53:07.283Z,100947.97
2023-05-19T07:56:09.951Z,100954.41
2023-05-19T07:59:13.420Z,100940.88
2023-05-19T08:02:16.250Z,100939.69
2023-05-19T08:05:19.016Z,100947.53
2023-05-19T08:08:22.085Z,100940.28
2023-05-19T08:11:24.718Z,100941.94
2023-05-19T08:14:27.596Z,100943.66
2023-05-19T08:17:30.211Z,100951.47
2023-05-19T08:20:33.052Z,100943.78
2023-05-19T08:23:37.937Z,100937.59
2023-05-19T08:26:41.006Z,100936.50
2023-05-19T08:29:43.756Z,100919.69
2023-05-19T08:32:46.601Z,100921.91
2023-05-19T08:35:49.145Z,100921.84
2023-05-19T08:38:51.803Z,100929.03
2023-05-19T08:41:54.738Z,100926.44
2023-05-19T08:44:57.670Z,100927.03
2023-05-19T08:48:00.748Z,100922.56
2023-05-19T08:51:14.157Z,100922.56
2023-05-19T08:54:20.025Z,100920.56
2023-05-19T08:57:23.861Z,100919.22
2023-05-19T09:00:26.620Z,100919.38
2023-05-19T09:03:29.555Z,100915.41
2023-05-19T09:06:32.572Z,100912.34
2023-05-19T09:09:35.107Z,100913.19
2023-05-19T09:12:38.280Z,100904.63
2023-05-19T09:15:43.667Z,100907.53
2023-05-19T09:18:57.135Z,100907.94
2023-05-19T09:22:03.497Z,100913.78
2023-05-19T09:25:06.554Z,100908.47
2023-05-19T09:28:09.224Z,100906.16
2023-05-19T09:31:11.818Z,100908.16
2023-05-19T09:34:14.553Z,100900.09
2023-05-19T09:37:17.269Z,100908.37
2023-05-19T09:40:19.984Z,100901.13
2023-05-19T09:43:22.857Z,100904.69
2023-05-19T09:46:28.566Z,100900.53
2023-05-19T09:49:32.933Z,100897.97
2023-05-19T09:52:37.307Z,100895.91
2023-05-19T09:55:39.858Z,100889.38
2023-05-19T09:58:42.765Z,100889.69
2023-05-19T10:01:46.950Z,100885.94
2023-05-19T10:04:49.646Z,100883.44
2023-05-19T10:07:54.674Z,100876.06
2023-05-19T10:10:57.305Z,100873.28
2023-05-19T10:14:00.080Z,100875.03
2023-05-19T10:17:02.889Z,100872.47
2023-05-19T10:20:10.406Z,100866.28
2023-05-19T10:23:13.975Z,100864.13
2023-05-19T10:26:16.552Z,100863.81
2023-05-19T10:29:22.090Z,100866.03
2023-05-19T10:32:27.141Z,100857.63
2023-05-19T10:35:52.154Z,100845.12
2023-05-19T10:39:08.528Z,100845.97
2023-05-19T10:42:19.776Z,100843.47
2023-05-19T10:45:23.188Z,100837.37
2023-05-19T10:48:26.509Z,100843.22
2023-05-19T10:51:31.948Z,100841.47
2023-05-19T10:54:48.064Z,100837.91
2023-05-19T10:57:57.183Z,100834.97
2023-05-19T11:01:02.654Z,100835.59
2023-05-19T11:04:14.305Z,100829.87
2023-05-19T11:07:21.933Z,100821.41
2023-05-19T11:10:25.026Z,100818.41
2023-05-19T11:16:32.852Z,100812.97
2023-05-19T11:19:35.781Z,100811.88
2023-05-19T11:22:39.067Z,100812.75
2023-05-19T11:25:45.390Z,100822.53
2023-05-19T11:28:48.087Z,100813.78
2023-05-19T11:31:52.058Z,100810.63
2023-05-19T11:34:56.172Z,100810.94
2023-05-19T11:37:59.533Z,100809.34
2023-05-19T11:41:02.429Z,100801.56
2023-05-19T11:44:09.840Z,100796.87
2023-05-19T11:47:13.513Z,100797.75
2023-05-19T11:50:16.322Z,100789.47
2023-05-19T11:53:20.075Z,100793.88
2023-05-19T11:56:22.930Z,100794.62
2023-05-19T11:59:36.220Z,100794.19
2023-05-19T12:02:39.195Z,100796.34
2023-05-19T12:05:46.049Z,100785.81
2023-05-19T12:08:51.766Z,100786.22
2023-05-19T12:11:54.660Z,100794.78
2023-05-19T12:14:57.226Z,100789.16
2023-05-19T12:18:01.853Z,100787.19
2023-05-19T12:21:05.095Z,100786.50
2023-05-19T12:24:07.670Z,100783.06
2023-05-19T12:27:12.626Z,100777.88
2023-05-19T12:30:15.026Z,100767.50
2023-05-19T12:33:17.782Z,100765.16
2023-05-19T12:36:20.428Z,100774.41
2023-05-19T12:39:23.463Z,100773.25
2023-05-19T12:42:31.806Z,100772.19
2023-05-19T12:45:38.904Z,100768.31
2023-05-19T12:48:44.356Z,100760.62
2023-05-19T12:51:54.078Z,100760.25
2023-05-19T12:55:01.347Z,100749.03
2023-05-19T12:58:06.097Z,100748.06
2023-05-19T13:01:15.585Z,100746.91
2023-05-19T13:04:18.377Z,100740.97
2023-05-19T13:07:21.248Z,100741.66
2023-05-19T13:10:23.982Z,100738.31
2023-05-19T13:13:26.667Z,100729.72
2023-05-19T13:16:29.598Z,100732.09
2023-05-19T13:19:32.694Z,100738.28
2023-05-19T13:22:35.475Z,100722.63
2023-05-19T13:25:38.238Z,100726.31
2023-05-19T13:28:40.988Z,100722.47
2023-05-19T13:31:43.678Z,100720.09
2023-05-19T13:34:46.355Z,100718.06
2023-05-19T13:37:49.663Z,100719.88
2023-05-19T13:40:52.227Z,100718.16
2023-05-19T13:43:54.985Z,100713.16
2023-05-19T13:46:57.673Z,100709.47
2023-05-19T13:50:00.527Z,100705.28
2023-05-19T13:53:03.924Z,100705.63
2023-05-19T13:56:06.682Z,100699.56
2023-05-19T13:59:09.343Z,100699.69
2023-05-19T14:02:11.973Z,100701.28
2023-05-19T14:05:14.630Z,100694.56
2023-05-19T14:08:17.537Z,100693.63
2023-05-19T14:11:20.353Z,100694.56
2023-05-19T14:14:23.056Z,100694.87
2023-05-19T14:17:27.564Z,100693.09
2023-05-19T14:20:30.250Z,100690.69
2023-05-19T14:23:32.919Z,100688.59
2023-05-19T14:26:35.545Z,100696.06
2023-05-19T14:29:38.323Z,100692.78
2023-05-19T14:32:41.010Z,100687.44
2023-05-19T14:35:43.740Z,100694.03
2023-05-19T14:38:46.355Z,100695.13
2023-05-19T14:41:51.125Z,100699.31
2023-05-19T14:44:53.847Z,100690.44
2023-05-19T14:47:56.550Z,100693.72
2023-05-19T14:50:59.148Z,100695.28
2023-05-19T14:54:02.487Z,100684.22
2023-05-19T14:57:07.374Z,100691.53
2023-05-19T15:00:10.551Z,100693.69
2023-05-19T15:03:13.166Z,100693.28
2023-05-19T15:06:15.856Z,100689.56
2023-05-19T15:09:18.451Z,100698.41
2023-05-19T15:12:21.053Z,100695.06
2023-05-19T15:15:23.750Z,100690.25
2023-05-19T15:18:26.408Z,100692.91
2023-05-19T15:21:29.020Z,100690.06
2023-05-19T15:24:31.631Z,100689.81
2023-05-19T15:27:36.465Z,100683.44
2023-05-19T15:30:40.107Z,100696.66
2023-05-19T15:33:42.736Z,100687.41
2023-05-19T15:36:45.279Z,100683.28
2023-05-19T15:39:48.101Z,100690.91
2023-05-19T15:42:50.666Z,100689.28
2023-05-19T15:45:55.253Z,100677.09
2023-05-19T15:48:57.925Z,100686.91
2023-05-19T15:52:00.478Z,100680.87
2023-05-19T15:55:03.136Z,100688.06
2023-05-19T15:58:05.803Z,100683.38
2023-05-19T16:01:08.504Z,100674.50
2023-05-19T16:04:11.269Z,100677.81
2023-05-19T16:07:13.947Z,100680.53
2023-05-19T16:10:16.703Z,100685.22
2023-05-19T16:13:19.274Z,100691.50
